Dellys, Algérie

23:14 CET le 01 août 2015 (GMT +0100)
Houari Boumediene | | Change Station
CLOSE
Current Station
Aéroport
Location: Algiers Airport,
Altitude: 82 ft
Stations météo à proximité

Alt. 82 ft 36.69 °N, 3.22 °E | Updated 14 minutes ago

Scattered Clouds
Nuages épars
81 ° F
Paraît 87 ° F
N
10
Vent Variable Vent de NE

Aujourd'hui
Haut(e) -- | Bas -- ° F
--% Risque de précip.
Hier
Haut(e) -- | Bas -- ° F
Precip. -- pouce
5:49 AM 7:51 PM
Pleine lune, 97% visible
Pression 29.95 pouce
Visibilité 6.2 Miles terrestres
Nuages Nuages épars 1300 ft
indice de chaleur 87 ° F
Point de rosée 77 ° F
Humidité 89%
Précipitations 0.00 pouce
Profondeur de la couche neigeuse Non disponible.
UV 0 sur 12
Pollen Non disponible.
Qualité de l'air Non disponible.
Flu Activity Non disponible.
METAR DAAG 012200Z 04009KT 360V060 9999 SCT013 27/25 Q1014

More Conditions Fewer Conditions

Pression 29.95 pouce
Visibilité 6.2 Miles terrestres
Nuages Nuages épars 1300 ft
indice de chaleur 87 ° F
Point de rosée 77 ° F
Humidité 89%
Précipitations 0.00 pouce
Profondeur de la couche neigeuse Non disponible.
UV 0 sur 12
Pollen Non disponible.
Qualité de l'air Non disponible.
Flu Activity Non disponible.
METAR DAAG 012200Z 04009KT 360V060 9999 SCT013 27/25 Q1014

More Conditions Fewer Conditions

10-Day Weather Forecast

×

Almanac

Astronomie

Aug. 01, 2015 Lever Coucher
Temps réel
Crépuscule civil
Crépuscule nautique
Crépuscule astronomique
Lune
Durée de lumière visible
Longueur du jour
Tomorrow will be .
, % of the Moon is Illuminated

Extrêmes aujourd'hui

Country Highs Country Lows

Community

WunderPhotos

Upload Photos

1,843,078 Photos téléchargées !

WunderBlogs® & News

Nearby

Qualité de l'air

  Qualité de l'air Indice de la qualité de l'air Polluant
Not available.

Épaisseur de neige

Station Depth Altitude

Activité sismique

Ville Distance Mag. Time & Date
Minimum magnitude displayed is 2.5.

Températures des eaux côtières

Lieu Température

Stations

Stations météo à proximité

Emplacement de la station Température Refroidissement éolien Point de rosée Humidité Vent Precip. Alt. Mise à jour Type